Time;durP1;ratioP1;P1;durP2;ratioP2;P2;SDS_P1;SDS_P2;PMS_P1;PMS_P2;Temp;Humidity;BMP_temperature;BMP_pressure;BME280_temperature;BME280_humidity;BME280_pressure;Samples;Min_cycle;Max_cycle;Signal;HPM_P1;HPM_P2
2022/11/20 00:01:05;;;;;;;;;;;;;;;17.26;84.69;96569.91;5085870;28;20020;-77
2022/11/20 00:03:32;;;;;;;;;;;;;;;17.24;84.72;96590.97;5066793;28;20394;-77
2022/11/20 00:06:03;;;;;;;;;;;;;;;17.22;85.15;96566.69;5069371;28;19920;-76
2022/11/20 00:08:30;;;;;;;;;;;;;;;17.28;84.83;96560.97;5079795;28;20306;-77
2022/11/20 00:10:57;;;;;;;;;;;;;;;17.23;85.01;96560.50;5087398;28;20383;-77
2022/11/20 00:13:24;;;;;;;;;;;;;;;17.22;84.93;96561.47;5084775;28;19920;-77
2022/11/20 00:15:56;;;;;;;;;;;;;;;17.11;85.29;96566.72;5088188;28;19963;-77
2022/11/20 00:18:23;;;;;;;;;;;;;;;17.22;84.88;96565.88;5089276;28;20322;-76
2022/11/20 00:20:50;;;;;;;;;;;;;;;17.21;85.07;96570.25;5088141;28;19928;-77
2022/11/20 00:23:17;;;;;;;;;;;;;;;17.20;84.77;96567.78;5088522;28;20023;-77
2022/11/20 00:25:45;;;;;;;;;;;;;;;17.28;84.53;96566.22;5104019;28;19926;-78
2022/11/20 00:28:12;;;;;;;;;;;;;;;17.33;84.12;96564.03;5087267;28;19920;-77
2022/11/20 00:30:39;;;;;;;;;;;;;;;17.38;84.39;96564.50;5088827;28;19924;-77
2022/11/20 00:33:05;;;;;;;;;;;;;;;17.27;84.26;96548.81;5088257;28;19920;-78
2022/11/20 00:35:33;;;;;;;;;;;;;;;17.34;84.16;96578.81;5104110;28;19920;-78
2022/11/20 00:38:02;;;;;;;;;;;;;;;17.41;84.01;96571.28;5088265;28;19920;-77
2022/11/20 00:40:32;;;;;;;;;;;;;;;17.35;84.25;96556.91;5088889;28;20350;-78
2022/11/20 00:42:58;;;;;;;;;;;;;;;17.36;84.17;96563.81;5087898;28;19920;-77
2022/11/20 00:45:25;;;;;;;;;;;;;;;17.34;84.48;96542.16;5088396;28;19920;-77
2022/11/20 00:47:52;;;;;;;;;;;;;;;17.23;84.63;96536.94;5088418;28;19927;-78
2022/11/20 00:50:19;;;;;;;;;;;;;;;17.21;84.93;96538.84;5081107;28;19920;-77
2022/11/20 00:52:46;;;;;;;;;;;;;;;17.20;85.19;96544.22;5068535;28;19920;-78
2022/11/20 00:55:12;;;;;;;;;;;;;;;17.17;85.04;96537.44;5099594;28;19943;-78
2022/11/20 00:57:40;;;;;;;;;;;;;;;17.23;85.02;96536.94;5100847;28;19920;-77
2022/11/20 01:00:07;;;;;;;;;;;;;;;17.34;84.71;96544.78;5077587;28;19924;-78
2022/11/20 01:02:34;;;;;;;;;;;;;;;17.36;83.98;96535.00;5068416;28;21084;-78
2022/11/20 01:05:02;;;;;;;;;;;;;;;17.46;83.73;96520.22;5067820;28;19927;-78
2022/11/20 01:07:29;;;;;;;;;;;;;;;17.51;82.86;96551.31;5067587;28;19920;-78
2022/11/20 01:09:56;;;;;;;;;;;;;;;17.54;82.81;96536.16;5083089;28;19926;-78
2022/11/20 01:12:22;;;;;;;;;;;;;;;17.57;82.25;96535.09;5075549;28;19959;-79
2022/11/20 01:14:49;;;;;;;;;;;;;;;17.59;82.09;96522.72;5078994;28;20338;-78
2022/11/20 01:17:16;;;;;;;;;;;;;;;17.57;82.36;96535.94;5085151;28;19927;-78
2022/11/20 01:19:43;;;;;;;;;;;;;;;17.47;82.12;96544.63;5102211;28;19927;-78
2022/11/20 01:22:10;;;;;;;;;;;;;;;17.54;81.88;96543.19;5068552;28;19933;-78
2022/11/20 01:24:37;;;;;;;;;;;;;;;17.31;83.18;96549.44;5067797;28;19927;-78
2022/11/20 01:27:06;;;;;;;;;;;;;;;17.26;83.40;96556.81;5069956;28;19920;-78
2022/11/20 01:29:33;;;;;;;;;;;;;;;17.32;83.52;96540.63;5087032;28;20391;-78
2022/11/20 01:32:00;;;;;;;;;;;;;;;17.27;83.17;96533.13;5078291;28;19920;-79
2022/11/20 01:34:27;;;;;;;;;;;;;;;17.28;82.87;96528.72;5088712;28;19954;-78
2022/11/20 01:36:54;;;;;;;;;;;;;;;17.29;83.50;96515.50;5092234;28;19920;-78
2022/11/20 01:39:23;;;;;;;;;;;;;;;17.16;83.99;96522.69;5091715;28;19920;-78
2022/11/20 01:44:46;;;;;;;;;;;;;;;17.23;83.63;96512.59;5092213;28;20403;-77
2022/11/20 01:47:15;;;;;;;;;;;;;;;17.24;83.13;96512.44;5123807;27;19926;-76
2022/11/20 01:49:44;;;;;;;;;;;;;;;17.26;83.06;96497.44;5092281;28;20451;-77
2022/11/20 01:52:22;;;;;;;;;;;;;;;17.30;83.38;96495.41;5091026;28;20474;-77
2022/11/20 01:54:59;;;;;;;;;;;;;;;17.21;83.72;96499.59;5080568;28;19924;-77
2022/11/20 01:57:29;;;;;;;;;;;;;;;17.20;84.27;96504.97;5072060;28;19920;-78
2022/11/20 02:00:01;;;;;;;;;;;;;;;17.24;83.66;96503.75;5086760;28;19966;-77
2022/11/20 02:02:39;;;;;;;;;;;;;;;17.30;83.42;96501.47;5071624;28;19920;-78
2022/11/20 02:05:20;;;;;;;;;;;;;;;17.31;83.73;96497.91;5080502;28;19920;-77
2022/11/20 02:07:48;;;;;;;;;;;;;;;17.28;83.91;96489.47;5089935;28;20429;-77
2022/11/20 02:10:15;;;;;;;;;;;;;;;17.29;83.65;96510.28;5089035;28;19920;-77
2022/11/20 02:15:48;;;;;;;;;;;;;;;17.27;84.02;96514.81;5084455;28;19928;-77
2022/11/20 02:18:16;;;;;;;;;;;;;;;17.23;83.74;96526.47;5071514;28;20334;-79
2022/11/20 02:20:46;;;;;;;;;;;;;;;17.15;84.06;96536.72;5070813;28;19930;-78
2022/11/20 02:23:48;;;;;;;;;;;;;;;17.03;84.73;96548.16;5070711;28;20316;-77
2022/11/20 02:26:16;;;;;;;;;;;;;;;16.86;86.00;96548.66;5067882;28;20358;-76
2022/11/20 02:28:43;;;;;;;;;;;;;;;16.80;86.39;96555.22;5071036;28;19924;-75
2022/11/20 02:31:10;;;;;;;;;;;;;;;16.76;86.37;96551.16;5069814;28;19920;-76
2022/11/20 02:33:38;;;;;;;;;;;;;;;16.81;85.96;96566.50;5070450;28;19958;-77
2022/11/20 02:36:05;;;;;;;;;;;;;;;16.88;85.53;96552.81;5070336;28;20249;-77
2022/11/20 02:38:32;;;;;;;;;;;;;;;16.99;85.69;96555.44;5070208;28;19920;-77
2022/11/20 02:40:59;;;;;;;;;;;;;;;17.03;85.02;96548.16;5103102;28;19947;-77
2022/11/20 02:43:26;;;;;;;;;;;;;;;16.98;85.09;96550.34;5069752;28;19921;-77
2022/11/20 02:45:52;;;;;;;;;;;;;;;17.15;83.90;96538.50;5071629;28;19921;-77
2022/11/20 02:48:19;;;;;;;;;;;;;;;17.12;84.07;96539.59;5070671;28;19920;-78
2022/11/20 02:51:07;;;;;;;;;;;;;;;17.13;84.11;96540.41;5081445;28;19942;-78
2022/11/20 02:53:34;;;;;;;;;;;;;;;17.20;83.43;96542.44;5089373;28;19943;-80
2022/11/20 02:56:02;;;;;;;;;;;;;;;17.30;82.65;96532.91;5093291;28;19935;-78
2022/11/20 02:58:30;;;;;;;;;;;;;;;17.35;82.53;96540.38;5091041;28;19920;-79
2022/11/20 03:00:57;;;;;;;;;;;;;;;17.31;82.79;96521.44;5088776;28;19930;-79
2022/11/20 03:03:26;;;;;;;;;;;;;;;17.32;82.39;96520.50;5090835;28;19920;-79
2022/11/20 03:05:52;;;;;;;;;;;;;;;17.27;82.69;96525.28;5089865;28;20410;-79
2022/11/20 03:08:19;;;;;;;;;;;;;;;17.24;83.09;96522.91;5090887;28;19920;-79
2022/11/20 03:10:47;;;;;;;;;;;;;;;17.23;83.35;96536.94;5089151;28;19920;-79
2022/11/20 03:13:14;;;;;;;;;;;;;;;17.27;82.91;96537.56;5089978;28;19920;-79
2022/11/20 03:15:41;;;;;;;;;;;;;;;17.20;82.94;96545.06;5091609;28;19920;-78
2022/11/20 03:18:07;;;;;;;;;;;;;;;17.18;83.19;96543.50;5089930;28;19924;-78
2022/11/20 03:20:35;;;;;;;;;;;;;;;17.24;82.60;96527.31;5090640;28;19920;-78
2022/11/20 03:23:02;;;;;;;;;;;;;;;17.19;82.98;96525.06;5089727;28;19920;-77
2022/11/20 03:25:28;;;;;;;;;;;;;;;17.19;82.77;96530.28;5090424;28;19920;-78
2022/11/20 03:27:56;;;;;;;;;;;;;;;17.19;83.21;96509.34;5089734;28;19920;-79
2022/11/20 03:30:23;;;;;;;;;;;;;;;17.25;82.66;96505.44;5089891;28;20375;-79
2022/11/20 03:32:56;;;;;;;;;;;;;;;17.22;82.56;96500.44;5090085;28;19920;-79
2022/11/20 03:35:23;;;;;;;;;;;;;;;17.21;83.04;96491.75;5089234;28;19963;-79
2022/11/20 03:37:49;;;;;;;;;;;;;;;17.21;82.93;96504.84;5088679;28;19951;-80
2022/11/20 03:40:17;;;;;;;;;;;;;;;17.18;82.54;96496.41;5088916;28;19993;-78
2022/11/20 03:42:46;;;;;;;;;;;;;;;17.18;82.48;96504.25;5089786;28;19970;-79
2022/11/20 03:45:14;;;;;;;;;;;;;;;17.16;82.38;96500.94;5089343;28;19927;-79
2022/11/20 03:47:41;;;;;;;;;;;;;;;17.18;82.09;96497.25;5089741;28;19920;-79
2022/11/20 03:50:09;;;;;;;;;;;;;;;17.21;82.02;96498.78;5121982;27;20371;-79
2022/11/20 03:52:38;;;;;;;;;;;;;;;17.14;82.03;96514.16;5090668;28;20014;-80
2022/11/20 03:55:06;;;;;;;;;;;;;;;17.24;82.00;96501.97;5123640;27;19920;-80
2022/11/20 03:57:33;;;;;;;;;;;;;;;17.30;81.33;96509.34;5088382;28;19920;-80
2022/11/20 03:59:59;;;;;;;;;;;;;;;17.24;81.18;96511.63;5089709;28;19935;-78
2022/11/20 04:02:30;;;;;;;;;;;;;;;17.28;81.14;96519.09;5088855;28;19920;-78
2022/11/20 04:04:59;;;;;;;;;;;;;;;17.22;81.70;96510.91;5121284;27;19919;-78
2022/11/20 04:07:27;;;;;;;;;;;;;;;17.15;81.57;96512.34;5121717;27;19951;-78
2022/11/20 04:09:55;;;;;;;;;;;;;;;17.23;81.13;96510.78;5088873;28;19990;-79
2022/11/20 04:12:21;;;;;;;;;;;;;;;17.24;80.98;96512.44;5123382;27;19920;-77
2022/11/20 04:14:48;;;;;;;;;;;;;;;17.22;80.75;96518.75;5128088;27;19920;-78
2022/11/20 04:17:15;;;;;;;;;;;;;;;17.30;80.53;96511.94;5090237;28;20363;-78
2022/11/20 04:19:45;;;;;;;;;;;;;;;17.24;80.54;96511.63;5120491;27;19927;-78
2022/11/20 04:22:13;;;;;;;;;;;;;;;17.29;80.57;96510.28;5089185;28;19920;-77
2022/11/20 04:24:40;;;;;;;;;;;;;;;17.28;80.38;96507.78;5088809;28;19997;-78
2022/11/20 04:27:07;;;;;;;;;;;;;;;17.21;80.34;96522.34;5089192;28;19920;-79
2022/11/20 04:29:36;;;;;;;;;;;;;;;17.17;80.32;96524.34;5088806;28;19920;-78
2022/11/20 04:32:04;;;;;;;;;;;;;;;17.28;79.88;96523.50;5088093;28;19920;-78
2022/11/20 04:34:31;;;;;;;;;;;;;;;17.38;79.92;96534.88;5089339;28;19920;-76
2022/11/20 04:37:00;;;;;;;;;;;;;;;17.31;79.93;96545.00;5091263;28;19931;-78
2022/11/20 04:39:27;;;;;;;;;;;;;;;17.37;79.73;96544.50;5090628;28;19920;-78
2022/11/20 04:42:28;;;;;;;;;;;;;;;17.31;79.44;96539.78;5087134;28;19920;-78
2022/11/20 04:44:44;;;;;;;;;;;;;;;17.29;79.47;96549.53;5088492;28;20011;-79
2022/11/20 04:47:11;;;;;;;;;;;;;;;17.32;79.04;96551.91;5089088;28;19927;-77
2022/11/20 04:49:39;;;;;;;;;;;;;;;17.41;78.94;96553.81;5087838;28;19956;-77
2022/11/20 04:52:06;;;;;;;;;;;;;;;17.49;78.70;96546.19;5089367;28;19920;-78
2022/11/20 04:54:34;;;;;;;;;;;;;;;17.43;78.35;96549.28;5089830;28;19920;-79
2022/11/20 04:57:01;;;;;;;;;;;;;;;17.40;78.59;96543.44;5083412;28;19956;-78
2022/11/20 04:59:28;;;;;;;;;;;;;;;17.42;78.94;96546.75;5075789;28;19920;-80
2022/11/20 05:01:55;;;;;;;;;;;;;;;17.36;78.80;96553.34;5100258;28;19964;-77
2022/11/20 05:04:23;;;;;;;;;;;;;;;17.33;79.03;96545.72;5068168;28;19955;-77
2022/11/20 05:06:50;;;;;;;;;;;;;;;17.36;79.14;96552.50;5067458;28;19920;-77
2022/11/20 05:09:18;;;;;;;;;;;;;;;17.41;79.15;96560.81;5075085;28;19920;-78
2022/11/20 05:11:45;;;;;;;;;;;;;;;17.34;79.03;96559.66;5088238;28;19920;-79
2022/11/20 05:14:17;;;;;;;;;;;;;;;17.31;79.15;96545.00;5087720;28;19920;-78
2022/11/20 05:16:44;;;;;;;;;;;;;;;17.31;79.23;96558.09;5088307;28;19920;-77
2022/11/20 05:19:10;;;;;;;;;;;;;;;17.38;79.35;96556.66;5086603;28;19924;-77
2022/11/20 05:21:38;;;;;;;;;;;;;;;17.36;79.04;96544.66;5087847;28;19920;-77
2022/11/20 05:24:05;;;;;;;;;;;;;;;17.33;79.13;96548.34;5087418;28;19920;-78
2022/11/20 05:26:32;;;;;;;;;;;;;;;17.31;79.38;96541.59;5088190;28;19935;-78
2022/11/20 05:28:59;;;;;;;;;;;;;;;17.38;79.16;96540.97;5086114;28;19919;-78
2022/11/20 05:31:26;;;;;;;;;;;;;;;17.32;79.46;96546.69;5088377;28;19920;-78
2022/11/20 05:33:55;;;;;;;;;;;;;;;17.33;79.49;96537.88;5086477;28;19920;-79
2022/11/20 05:36:22;;;;;;;;;;;;;;;17.42;79.54;96542.38;5087911;28;19920;-79
2022/11/20 05:38:49;;;;;;;;;;;;;;;17.32;79.61;96559.78;5079815;28;19920;-80
2022/11/20 05:41:19;;;;;;;;;;;;;;;17.33;79.90;96569.28;5088294;28;19947;-79
2022/11/20 05:43:47;;;;;;;;;;;;;;;17.27;80.68;96556.69;5088795;28;20391;-78
2022/11/20 05:46:15;;;;;;;;;;;;;;;17.24;80.82;96549.09;5087784;28;19989;-79
2022/11/20 05:48:42;;;;;;;;;;;;;;;17.31;81.23;96559.91;5088642;28;20376;-79
2022/11/20 05:51:10;;;;;;;;;;;;;;;17.33;80.84;96563.22;5087917;28;19942;-79
2022/11/20 05:53:37;;;;;;;;;;;;;;;17.44;80.72;96561.41;5087996;28;19920;-80
2022/11/20 05:56:12;;;;;;;;;;;;;;;17.43;80.41;96569.38;5087865;28;19926;-79
2022/11/20 05:58:39;;;;;;;;;;;;;;;17.33;81.46;96569.28;5085880;28;19920;-78
2022/11/20 06:01:09;;;;;;;;;;;;;;;17.32;81.51;96564.16;5089791;28;19927;-79
2022/11/20 06:03:37;;;;;;;;;;;;;;;17.31;81.62;96562.53;5087402;28;19939;-78
2022/11/20 06:06:05;;;;;;;;;;;;;;;17.22;82.19;96565.88;5087850;28;19920;-77
2022/11/20 06:08:34;;;;;;;;;;;;;;;17.23;82.53;96555.25;5087494;28;19920;-78
2022/11/20 06:11:05;;;;;;;;;;;;;;;17.22;82.63;96571.94;5088063;28;19927;-79
2022/11/20 06:13:33;;;;;;;;;;;;;;;17.25;82.24;96576.09;5086825;28;19919;-79
2022/11/20 06:16:09;;;;;;;;;;;;;;;17.35;82.15;96582.25;5101837;28;19939;-79
2022/11/20 06:18:36;;;;;;;;;;;;;;;17.28;82.35;96581.91;5086763;28;20340;-78
2022/11/20 06:21:09;;;;;;;;;;;;;;;17.30;82.07;96593.09;5089277;28;19920;-78
2022/11/20 06:23:37;;;;;;;;;;;;;;;17.34;82.20;96576.19;5091215;28;19920;-77
2022/11/20 06:26:10;;;;;;;;;;;;;;;17.47;81.94;96576.03;5105677;28;19928;-79
2022/11/20 06:28:37;;;;;;;;;;;;;;;17.47;81.48;96579.50;5123670;27;19963;-79
2022/11/20 06:31:05;;;;;;;;;;;;;;;17.46;81.67;96563.88;5092487;28;20391;-80
2022/11/20 06:33:32;;;;;;;;;;;;;;;17.47;81.34;96566.41;5090548;28;19946;-81
2022/11/20 06:36:00;;;;;;;;;;;;;;;17.29;81.27;96531.22;5091226;28;19920;-80
2022/11/20 06:38:35;;;;;;;;;;;;;;;17.53;81.33;96570.34;5090135;28;20318;-80
2022/11/20 06:41:04;;;;;;;;;;;;;;;17.65;80.78;96571.97;5090443;28;19920;-77
2022/11/20 06:43:31;;;;;;;;;;;;;;;17.62;80.74;96585.31;5122848;27;20006;-78
2022/11/20 06:45:59;;;;;;;;;;;;;;;17.74;80.62;96600.84;5117849;27;19924;-79
2022/11/20 06:48:27;;;;;;;;;;;;;;;17.68;80.47;96588.25;5079816;28;19924;-79
2022/11/20 06:50:54;;;;;;;;;;;;;;;17.66;80.30;96591.97;5069633;28;20319;-78
2022/11/20 06:53:23;;;;;;;;;;;;;;;17.70;80.02;96599.44;5071022;28;19920;-78
2022/11/20 06:55:51;;;;;;;;;;;;;;;17.78;79.89;96597.00;5072691;28;20014;-79
2022/11/20 06:58:18;;;;;;;;;;;;;;;17.65;80.15;96600.78;5087009;28;19920;-77
2022/11/20 07:00:45;;;;;;;;;;;;;;;17.55;81.04;96603.31;5079259;28;20296;-80
2022/11/20 07:03:13;;;;;;;;;;;;;;;17.65;80.80;96612.09;5090439;28;19944;-80
2022/11/20 07:05:40;;;;;;;;;;;;;;;17.68;80.30;96606.56;5090800;28;19920;-77
2022/11/20 07:08:07;;;;;;;;;;;;;;;17.70;80.06;96604.66;5090191;28;20288;-82
2022/11/20 07:10:36;;;;;;;;;;;;;;;17.69;80.79;96604.81;5090331;28;20406;-79
2022/11/20 07:13:03;;;;;;;;;;;;;;;17.69;80.85;96610.03;5090363;28;20238;-77
2022/11/20 07:15:30;;;;;;;;;;;;;;;17.70;80.63;96606.47;5088293;28;19977;-78
2022/11/20 07:18:00;;;;;;;;;;;;;;;17.67;80.86;96607.56;5084143;28;20303;-78
2022/11/20 07:20:27;;;;;;;;;;;;;;;17.71;80.62;96613.38;5080977;28;19921;-80
2022/11/20 07:22:59;;;;;;;;;;;;;;;17.51;81.32;96603.66;5085525;28;19959;-79
2022/11/20 07:25:27;;;;;;;;;;;;;;;17.67;80.95;96612.78;5071247;28;19942;-80
2022/11/20 07:27:58;;;;;;;;;;;;;;;17.69;80.70;96608.25;5076434;28;20262;-80
2022/11/20 07:30:29;;;;;;;;;;;;;;;17.78;80.47;96610.13;5089830;28;20053;-81
2022/11/20 07:32:56;;;;;;;;;;;;;;;17.89;80.48;96593.53;5089662;28;20262;-79
2022/11/20 07:35:24;;;;;;;;;;;;;;;17.96;79.67;96597.31;5088771;28;19969;-80
2022/11/20 07:37:51;;;;;;;;;;;;;;;18.13;79.05;96588.91;5089414;28;20349;-79
2022/11/20 07:40:18;;;;;;;;;;;;;;;18.20;78.64;96586.59;5088601;28;19919;-79
2022/11/20 07:42:50;;;;;;;;;;;;;;;18.27;78.26;96590.38;5089476;28;19924;-79
2022/11/20 07:45:19;;;;;;;;;;;;;;;18.22;78.21;96589.91;5089817;28;19938;-80
2022/11/20 07:47:50;;;;;;;;;;;;;;;18.29;77.71;96591.06;5084152;28;19928;-78
2022/11/20 07:50:19;;;;;;;;;;;;;;;18.34;77.79;96588.91;5081637;28;19920;-74
2022/11/20 07:52:47;;;;;;;;;;;;;;;18.17;78.41;96585.06;5081901;28;19927;-80
2022/11/20 07:55:17;;;;;;;;;;;;;;;18.17;78.31;96592.94;5089241;28;19920;-78
2022/11/20 07:57:45;;;;;;;;;;;;;;;18.07;79.02;96589.41;5105590;28;19924;-82
2022/11/20 08:00:15;;;;;;;;;;;;;;;18.02;78.95;96599.44;5088623;28;20000;-78
2022/11/20 08:02:44;;;;;;;;;;;;;;;18.12;78.66;96605.56;5119292;27;19934;-78
2022/11/20 08:05:11;;;;;;;;;;;;;;;18.07;78.75;96601.69;5068991;28;19934;-77
2022/11/20 08:07:44;;;;;;;;;;;;;;;18.08;78.84;96606.78;5074293;28;20406;-76
2022/11/20 08:10:16;;;;;;;;;;;;;;;17.94;79.45;96614.97;5094454;28;19920;-80
2022/11/20 08:15:35;;;;;;;;;;;;;;;18.07;79.00;96613.00;5089357;28;19921;-77
2022/11/20 08:18:04;;;;;;;;;;;;;;;17.93;79.77;96617.72;5085236;28;19955;-75
2022/11/20 08:21:13;;;;;;;;;;;;;;;17.91;79.41;96614.38;5107657;27;19924;-77
2022/11/20 08:23:55;;;;;;;;;;;;;;;18.00;79.33;96613.59;5073737;28;20342;-81
2022/11/20 08:26:24;;;;;;;;;;;;;;;18.01;79.58;96607.44;5069698;28;19924;-78
2022/11/20 08:28:55;;;;;;;;;;;;;;;18.00;79.24;96606.59;5088810;28;19919;-79
2022/11/20 08:31:24;;;;;;;;;;;;;;;18.02;79.27;96609.91;5081853;28;19969;-78
2022/11/20 08:33:51;;;;;;;;;;;;;;;18.09;78.99;96605.00;5069476;28;19927;-79
2022/11/20 08:36:21;;;;;;;;;;;;;;;18.05;78.63;96598.34;5074370;28;19958;-81
2022/11/20 08:38:52;;;;;;;;;;;;;;;18.06;78.73;96598.22;5103880;28;19920;-82
2022/11/20 08:41:32;;;;;;;;;;;;;;;18.00;79.39;96600.50;5104119;28;19919;-80
2022/11/20 08:44:01;;;;;;;;;;;;;;;18.05;79.32;96587.88;5080369;28;20014;-78
2022/11/20 08:46:36;;;;;;;;;;;;;;;18.15;78.75;96592.22;5080626;28;20006;-81
2022/11/20 08:49:07;;;;;;;;;;;;;;;17.98;78.87;96577.06;5087209;28;19923;-81
2022/11/20 08:51:35;;;;;;;;;;;;;;;17.95;79.52;96587.78;5071856;28;19924;-82
2022/11/20 08:54:05;;;;;;;;;;;;;;;18.11;79.00;96589.97;5082370;28;19950;-80
2022/11/20 08:56:32;;;;;;;;;;;;;;;17.98;79.27;96590.16;5083371;28;19920;-76
2022/11/20 08:59:00;;;;;;;;;;;;;;;18.10;79.10;96585.69;5089025;28;20426;-76
2022/11/20 09:01:47;;;;;;;;;;;;;;;18.21;78.94;96572.53;5095725;28;19920;-76
2022/11/20 09:04:14;;;;;;;;;;;;;;;18.02;79.48;96567.16;5085336;28;19927;-77
2022/11/20 09:06:41;;;;;;;;;;;;;;;18.10;79.02;96564.72;5084913;28;20347;-78
2022/11/20 09:09:08;;;;;;;;;;;;;;;18.11;78.87;96563.78;5074635;28;19926;-74
2022/11/20 09:11:35;;;;;;;;;;;;;;;18.06;79.21;96563.31;5085570;28;20427;-72
2022/11/20 09:14:04;;;;;;;;;;;;;;;18.19;78.80;96563.97;5086321;28;20006;-76
2022/11/20 09:16:31;;;;;;;;;;;;;;;18.30;78.01;96553.44;5087971;28;19920;-78
2022/11/20 09:19:00;;;;;;;;;;;;;;;18.44;77.81;96553.13;5086998;28;19952;-77
2022/11/20 09:21:47;;;;;;;;;;;;;;;18.50;77.34;96552.59;5087757;28;19944;-78
2022/11/20 09:24:20;;;;;;;;;;;;;;;18.48;77.11;96546.66;5085854;28;20030;-78
2022/11/20 09:26:47;;;;;;;;;;;;;;;18.63;76.78;96545.31;5087439;28;19920;-79
2022/11/20 09:29:14;;;;;;;;;;;;;;;18.69;76.73;96540.38;5088168;28;19959;-81
2022/11/20 09:31:42;;;;;;;;;;;;;;;18.78;75.98;96548.44;5085741;28;20387;-80
2022/11/20 09:34:09;;;;;;;;;;;;;;;18.61;75.81;96550.72;5103274;28;19977;-80
2022/11/20 09:36:37;;;;;;;;;;;;;;;18.61;76.11;96526.25;5085642;28;19967;-82
2022/11/20 09:39:12;;;;;;;;;;;;;;;18.61;75.97;96521.03;5103502;28;19920;-89
2022/11/20 09:42:02;;;;;;;;;;;;;;;18.73;75.60;96520.00;5088974;28;20565;-76
2022/11/20 09:44:32;;;;;;;;;;;;;;;18.80;75.64;96526.34;5086943;28;19953;-78
2022/11/20 09:47:10;;;;;;;;;;;;;;;18.98;74.90;96526.56;5087777;28;19928;-78
2022/11/20 09:49:53;;;;;;;13.60;4.17;;;;;;;19.07;74.32;96516.06;5084717;28;19920;-78
2022/11/20 09:52:47;;;;;;;;;;;;;;;19.03;74.24;96522.56;5086669;28;20229;-79
2022/11/20 09:55:21;;;;;;;;;;;;;;;19.01;74.19;96516.63;5114860;27;19934;-77
2022/11/20 09:57:53;;;;;;;;;;;;;;;19.04;73.97;96505.03;5086114;28;19920;-79
2022/11/20 10:00:21;;;;;;;;;;;;;;;19.12;74.02;96513.88;5091241;28;20350;-78
2022/11/20 10:02:48;;;;;;;;;;;;;;;18.85;74.48;96505.81;5091879;28;19927;-76
2022/11/20 10:05:22;;;;;;;;;;;;;;;18.74;74.66;96507.69;5090643;28;20406;-79
2022/11/20 10:08:13;;;;;;;;;;;;;;;18.92;74.16;96491.16;5106313;28;19920;-82
2022/11/20 10:10:44;;;;;;;;;;;;;;;18.97;73.98;96493.41;5105993;28;19920;-78
2022/11/20 10:13:24;;;;;;;;;;;;;;;18.96;73.71;96499.63;5097493;28;19935;-77
2022/11/20 10:16:03;;;;;;;;;;;;;;;19.08;73.18;96490.66;5086559;28;19920;-78
2022/11/20 10:18:31;;;;;;;;;;;;;;;19.01;73.10;96479.88;5078909;28;19920;-75
2022/11/20 10:21:04;;;;;;;;;;;;;;;19.09;73.07;96484.44;5077813;28;20391;-76
2022/11/20 10:23:42;;;;;;;;;;;;;;;19.19;72.74;96478.25;5076858;28;20762;-81
2022/11/20 10:26:35;;;;;;;;;;;;;;;19.22;72.71;96493.72;5069331;28;20009;-79
2022/11/20 10:29:11;;;;;;;;;;;;;;;19.11;72.99;96491.22;5069171;28;19920;-80
2022/11/20 10:31:40;;;;;;;;;;;;;;;19.17;72.57;96500.34;5087499;28;19953;-76
2022/11/20 10:34:21;;;;;;;;;;;;;;;19.07;72.14;96502.94;5106479;28;19920;-79
2022/11/20 10:36:59;;;;;;;;;;;;;;;19.10;72.25;96488.72;5085848;28;19920;-79
2022/11/20 10:39:33;;;;;;;;;;;;;;;19.14;72.27;96490.97;5123590;27;19920;-79
2022/11/20 10:42:01;;;;;;;;;;;;;;;19.17;71.40;96485.41;5078999;28;20432;-78
2022/11/20 10:47:30;;;;;;;;;;;;;;;19.46;70.44;96490.72;5077037;28;20406;-78
2022/11/20 10:50:23;;;;;;;15.67;4.07;;;;;;;19.33;70.72;96485.75;5046476;28;19924;-80
2022/11/20 10:53:18;;;;;;;17.97;4.47;;;;;;;19.24;70.31;96470.78;5058348;28;20206;-79
2022/11/20 10:55:58;;;;;;;14.83;4.13;;;;;;;19.35;70.33;96478.56;5089284;28;20591;-79
2022/11/20 10:59:00;;;;;;;15.03;3.63;;;;;;;19.36;70.38;96477.59;5104688;28;20953;-80
2022/11/20 11:01:28;;;;;;;14.83;4.47;;;;;;;19.29;70.24;96455.44;5088892;28;20196;-81
2022/11/20 11:04:33;;;;;;;9.43;3.57;;;;;;;19.46;70.04;96475.81;5105169;28;20220;-81
2022/11/20 11:07:16;;;;;;;18.10;3.93;;;;;;;19.26;70.16;96450.47;5088870;28;20686;-80
2022/11/20 11:09:55;;;;;;;17.33;4.83;;;;;;;19.38;70.17;96446.78;5089890;28;20186;-80
2022/11/20 11:12:27;;;;;;;17.80;5.13;;;;;;;19.34;70.84;96455.91;5071403;28;20206;-81
2022/11/20 11:15:00;;;;;;;14.70;4.67;;;;;;;19.29;70.74;96426.56;5088068;28;20206;-80
2022/11/20 11:17:30;;;;;;;19.40;5.27;;;;;;;19.48;70.42;96442.34;5089337;28;20621;-80
2022/11/20 11:20:03;;;;;;;16.33;5.63;;;;;;;19.44;70.14;96446.22;5088622;28;20195;-81
2022/11/20 11:22:43;;;;;;;16.93;4.20;;;;;;;19.45;70.46;96434.75;5088149;28;20395;-79
2022/11/20 11:25:27;;;;;;;16.17;5.00;;;;;;;19.60;70.00;96429.09;5088667;28;20223;-80
2022/11/20 11:28:06;;;;;;;16.73;5.30;;;;;;;19.67;69.83;96427.53;5085144;28;20197;-80
2022/11/20 11:30:46;;;;;;;15.03;4.67;;;;;;;19.66;69.51;96423.28;5088697;28;20192;-81
2022/11/20 11:33:31;;;;;;;16.67;5.23;;;;;;;19.55;70.27;96420.78;5088497;28;20253;-81
2022/11/20 11:36:17;;;;;;;24.87;5.20;;;;;;;19.62;69.57;96427.16;5089174;28;20234;-80
2022/11/20 11:38:52;;;;;;;20.90;4.27;;;;;;;19.59;69.52;96436.13;5088963;28;20191;-81
2022/11/20 11:41:28;;;;;;;16.50;4.37;;;;;;;19.66;69.06;96416.19;5088910;28;20188;-81
2022/11/20 11:46:54;;;;;;;16.07;4.63;;;;;;;19.98;68.01;96414.06;5090296;28;20219;-81
2022/11/20 11:49:22;;;;;;;;;;;;;;;20.10;68.08;96414.69;5089298;28;20192;-81
2022/11/20 11:52:05;;;;;;;;;;;;;;;20.17;68.06;96416.59;5089088;28;19920;-79
2022/11/20 11:55:00;;;;;;;;;;;;;;;20.17;68.07;96407.91;5104761;28;20647;-81
2022/11/20 11:57:54;;;;;;;17.87;5.17;;;;;;;20.34;67.76;96406.34;5101973;28;20043;-81
2022/11/20 12:00:24;;;;;;;18.67;5.00;;;;;;;20.47;66.68;96398.94;5083100;28;20203;-80
2022/11/20 12:02:58;;;;;;;24.43;5.40;;;;;;;20.59;66.16;96405.66;5089470;28;20686;-80
2022/11/20 12:05:28;;;;;;;;;;;;;;;20.72;64.24;96403.50;5065612;28;20199;-80
2022/11/20 12:08:11;;;;;;;;;;;;;;;20.69;63.86;96404.63;5084000;28;20470;-80
2022/11/20 12:10:48;;;;;;;;;;;;;;;20.63;63.75;96401.78;5103914;28;19924;-79
2022/11/20 12:13:37;;;;;;;;;;;;;;;20.49;64.28;96407.50;5087991;28;20039;-80
2022/11/20 12:16:11;;;;;;;;;;;;;;;20.53;64.16;96404.44;5085734;28;19920;-80
2022/11/20 12:18:57;;;;;;;;;;;;;;;20.44;64.74;96400.09;5049817;28;19931;-82
2022/11/20 12:21:35;;;;;;;;;;;;;;;20.38;64.98;96391.94;5095683;28;20379;-81
2022/11/20 12:24:06;;;;;;;;;;;;;;;20.30;65.16;96394.47;5083785;28;19927;-80
2022/11/20 12:26:33;;;;;;;;;;;;;;;20.15;65.68;96401.97;5091532;28;19978;-82
2022/11/20 12:29:23;;;;;;;;;;;;;;;20.23;65.52;96407.38;5099851;28;19924;-81
2022/11/20 12:32:11;;;;;;;;;;;;;;;20.13;65.96;96406.53;5088791;28;19977;-80
2022/11/20 12:34:52;;;;;;;;;;;;;;;20.14;65.48;96403.75;5120610;27;19920;-81
2022/11/20 12:37:41;;;;;;;;;;;;;;;20.22;65.41;96403.06;5088547;28;20025;-80
2022/11/20 12:40:16;;;;;;;;;;;;;;;20.12;65.74;96389.94;5088264;28;19955;-80
2022/11/20 12:46:08;;;;;;;;;;;;;;;20.04;65.92;96387.19;5087720;28;20394;-75
2022/11/20 12:48:44;;;;;;;;;;;;;;;19.95;66.31;96379.31;5086366;28;19959;-76
2022/11/20 12:51:21;;;;;;;;;;;;;;;20.03;66.19;96384.72;5065718;28;19920;-74
2022/11/20 12:54:18;;;;;;;;;;;;;;;19.98;66.39;96381.69;5082062;28;19928;-76
2022/11/20 12:57:09;;;;;;;;;;;;;;;19.96;66.45;96378.38;5067248;28;20403;-76
2022/11/20 12:59:42;;;;;;;;;;;;;;;19.96;66.66;96365.22;5083470;28;19927;-77
2022/11/20 13:02:18;;;;;;;;;;;;;;;20.00;66.52;96369.22;5068812;28;19927;-79
2022/11/20 13:04:53;;;;;;;;;;;;;;;20.05;66.40;96382.78;5066986;28;20350;-76
2022/11/20 13:07:21;;;;;;;;;;;;;;;20.08;66.11;96378.06;5061876;28;19981;-78
2022/11/20 13:09:50;;;;;;;;;;;;;;;20.07;66.01;96378.19;5086644;28;19920;-75
2022/11/20 13:12:22;;;;;;;;;;;;;;;20.10;65.88;96370.84;5075315;28;19935;-80
2022/11/20 13:15:04;;;;;;;;;;;;;;;20.18;65.81;96378.00;5087719;28;20409;-81
2022/11/20 13:17:41;;;;;;;;;;;;;;;20.05;66.42;96372.25;5086552;28;20306;-79
2022/11/20 13:20:13;;;;;;;;;;;;;;;19.95;66.49;96361.75;5067865;28;20011;-76